Norfolk International Airport

Airport
ICAO code: 
KORF
Summary
ICAO Region: 
NAM
Territory: 
Location: 
Norfolk, Virginia,
Coordinates: 
Aerial View: 
36° 53' 55.212" N, 76° 12' 20.75" W
Metar
Observation
KORF 021551Z 23011KT 10SM CLR 17/06 A2993 RMK AO2 SLP135 T01720056
Station
Norfolk, Norfolk International Airport
Date/Time
2021-12-02 15:51:00
Wind direction
230°
Wind speed
11 kts
Lowest cloud amount
n/a
Temperature
17.2°C
Dew point
5.6°C
Humidity
46%
Weather condition
n/a

Description

International airport 3 nm north east of Norfolk, Virginia, USA.

Climatology

Humid “subtropical” climate (Köppen climate classification Cfa) - characterized by hot, humid summers and cool winters. Significant amounts of precipitation occur in all seasons in most areas. Winter rainfall (and sometimes snowfall) is associated with large storms that the westerlies steer from west to east. Most summer rainfall occurs during thunderstorms and occasional tropical storms (hurricanes).

Runways

Designator Length Width Surface Rops
14/32 1486 46 ASP Yes/Yes
5/23 2744 46 ASP Yes/Yes
Airport map: 
Aerial View: 

SKYbrary Partners:

Safety knowledge contributed by: